Time;durP1;ratioP1;P1;durP2;ratioP2;P2;SDS_P1;SDS_P2;PMS_P1;PMS_P2;Temp;Humidity;BMP_temperature;BMP_pressure;BME280_temperature;BME280_humidity;BME280_pressure;Samples;Min_cycle;Max_cycle;Signal;HPM_P1;HPM_P2
2023/06/03 00:00:08;;;;;;;1.50;1.08;;;9.90;99.90;;;;;;6149874;23;20005;-57
2023/06/03 00:02:34;;;;;;;2.20;0.57;;;9.90;99.90;;;;;;6150115;23;20145;-57
2023/06/03 00:05:03;;;;;;;0.60;0.60;;;9.80;99.90;;;;;;6150739;23;20041;-56
2023/06/03 00:07:29;;;;;;;1.35;0.60;;;9.80;99.90;;;;;;6144994;23;20457;-55
2023/06/03 00:09:54;;;;;;;0.57;0.57;;;9.70;99.90;;;;;;6150408;23;20001;-55
2023/06/03 00:12:20;;;;;;;0.95;0.70;;;9.70;99.90;;;;;;6150422;23;20624;-55
2023/06/03 00:14:46;;;;;;;1.42;0.70;;;9.80;99.90;;;;;;6149923;23;20084;-55
2023/06/03 00:17:12;;;;;;;1.45;0.68;;;9.70;99.90;;;;;;6150744;23;19998;-53
2023/06/03 00:19:40;;;;;;;1.00;0.55;;;9.70;99.90;;;;;;6150312;23;20005;-56
2023/06/03 00:22:06;;;;;;;2.80;1.08;;;9.60;99.90;;;;;;6150015;23;19997;-55
2023/06/03 00:24:32;;;;;;;0.73;0.70;;;9.50;99.90;;;;;;6149277;23;20040;-56
2023/06/03 00:26:58;;;;;;;2.40;0.80;;;9.50;99.90;;;;;;6150169;23;20002;-54
2023/06/03 00:29:25;;;;;;;0.70;0.43;;;9.40;99.90;;;;;;6150807;23;20028;-54
2023/06/03 00:31:50;;;;;;;1.90;0.70;;;9.40;99.90;;;;;;6149577;23;20014;-57
2023/06/03 00:34:16;;;;;;;0.93;0.55;;;9.40;99.90;;;;;;6149583;23;20091;-57
2023/06/03 00:36:41;;;;;;;1.13;0.47;;;9.30;99.90;;;;;;6147694;23;20104;-57
2023/06/03 00:39:08;;;;;;;0.52;0.50;;;9.30;99.90;;;;;;6150158;23;20052;-54
2023/06/03 00:41:34;;;;;;;1.40;0.70;;;9.20;99.90;;;;;;6149999;23;20005;-55
2023/06/03 00:43:59;;;;;;;2.72;0.60;;;9.20;99.90;;;;;;6149911;23;20008;-57
2023/06/03 00:46:25;;;;;;;1.25;0.70;;;9.10;99.90;;;;;;6149728;23;20005;-54
2023/06/03 00:48:51;;;;;;;3.15;0.93;;;9.10;99.90;;;;;;6149685;23;20016;-54
2023/06/03 00:51:17;;;;;;;1.63;0.90;;;9.10;99.90;;;;;;6150000;23;20009;-53
2023/06/03 00:53:44;;;;;;;1.17;0.68;;;9.00;99.90;;;;;;6150240;23;20016;-55
2023/06/03 00:56:10;;;;;;;1.25;0.73;;;9.00;99.90;;;;;;6149648;23;20382;-58
2023/06/03 00:58:36;;;;;;;0.95;0.68;;;9.00;99.90;;;;;;6146839;23;20029;-56
2023/06/03 01:01:02;;;;;;;1.00;0.70;;;9.00;99.90;;;;;;6146288;23;20514;-55
2023/06/03 01:03:27;;;;;;;1.58;0.70;;;8.90;99.90;;;;;;6146970;23;20042;-56
2023/06/03 01:06:32;;;;;;;1.42;0.90;;;8.90;99.90;;;;;;6149620;23;20014;-56
2023/06/03 01:09:13;;;;;;;0.85;0.75;;;8.80;99.90;;;;;;6132176;23;20041;-54
2023/06/03 01:11:55;;;;;;;2.55;0.93;;;8.70;99.90;;;;;;6149681;23;20084;-55
2023/06/03 01:14:25;;;;;;;0.65;0.63;;;8.60;99.90;;;;;;6149282;23;20010;-53
2023/06/03 01:16:52;;;;;;;1.00;0.50;;;8.60;99.90;;;;;;6149881;23;20532;-57
2023/06/03 01:19:38;;;;;;;1.42;0.82;;;8.60;99.90;;;;;;6149476;23;20002;-52
2023/06/03 01:22:06;;;;;;;2.47;0.90;;;8.50;99.90;;;;;;6149673;23;20013;-55
2023/06/03 01:24:32;;;;;;;1.48;1.05;;;8.50;99.90;;;;;;6147425;23;20012;-57
2023/06/03 01:26:58;;;;;;;0.73;0.68;;;8.40;99.90;;;;;;6150317;23;20072;-57
2023/06/03 01:29:24;;;;;;;1.17;0.60;;;8.40;99.90;;;;;;6149899;23;20084;-56
2023/06/03 01:31:52;;;;;;;0.73;0.73;;;8.30;99.90;;;;;;6149177;23;20013;-57
2023/06/03 01:34:18;;;;;;;1.05;0.90;;;8.30;99.90;;;;;;6149330;23;20446;-54
2023/06/03 01:36:44;;;;;;;0.80;0.65;;;8.20;99.90;;;;;;6149129;23;20037;-52
2023/06/03 01:39:11;;;;;;;1.42;0.63;;;8.20;99.90;;;;;;6149484;23;20434;-55
2023/06/03 01:41:39;;;;;;;1.23;0.60;;;8.20;99.90;;;;;;6149602;23;20049;-54
2023/06/03 01:44:05;;;;;;;1.10;0.90;;;8.10;99.90;;;;;;6148933;23;19997;-52
2023/06/03 01:46:30;;;;;;;1.58;1.15;;;8.10;99.90;;;;;;6149301;23;20014;-54
2023/06/03 01:48:56;;;;;;;0.85;0.70;;;8.10;99.90;;;;;;6149468;23;20017;-56
2023/06/03 01:51:26;;;;;;;0.77;0.68;;;8.00;99.90;;;;;;6147428;23;20006;-56
2023/06/03 01:53:51;;;;;;;1.58;0.80;;;8.10;99.90;;;;;;6149103;23;20472;-57
2023/06/03 01:56:17;;;;;;;3.28;1.13;;;8.00;99.90;;;;;;6149589;23;20006;-52
2023/06/03 01:58:43;;;;;;;2.67;0.80;;;8.00;99.90;;;;;;6149475;23;20029;-52
2023/06/03 02:01:08;;;;;;;1.20;0.82;;;8.00;99.90;;;;;;6148789;23;20081;-54
2023/06/03 02:03:34;;;;;;;3.10;0.82;;;7.90;99.90;;;;;;6149587;23;20367;-57
2023/06/03 02:05:59;;;;;;;0.88;0.80;;;7.90;99.90;;;;;;6148819;23;20319;-56
2023/06/03 02:08:25;;;;;;;1.08;0.80;;;7.80;99.90;;;;;;6149595;23;20067;-54
2023/06/03 02:10:50;;;;;;;3.65;1.13;;;7.80;99.90;;;;;;6149431;23;20001;-56
2023/06/03 02:13:16;;;;;;;1.20;0.85;;;7.80;99.90;;;;;;6146179;23;20623;-58
2023/06/03 02:15:42;;;;;;;3.22;0.88;;;7.80;99.90;;;;;;6148895;23;20006;-55
2023/06/03 02:18:07;;;;;;;1.23;0.63;;;7.70;99.90;;;;;;6147270;23;20005;-52
2023/06/03 02:20:33;;;;;;;1.25;1.00;;;7.60;99.90;;;;;;6149514;23;20002;-55
2023/06/03 02:23:01;;;;;;;1.77;0.73;;;7.60;99.90;;;;;;6148636;23;20056;-56
2023/06/03 02:25:27;;;;;;;0.70;0.55;;;7.50;99.90;;;;;;6149167;23;20005;-56
2023/06/03 02:27:54;;;;;;;2.70;0.73;;;7.50;99.90;;;;;;6149302;23;20353;-57
2023/06/03 02:30:20;;;;;;;1.50;0.95;;;7.50;99.90;;;;;;6148656;23;20009;-54
2023/06/03 02:32:46;;;;;;;1.75;1.30;;;7.50;99.90;;;;;;6151286;23;20009;-56
2023/06/03 02:35:11;;;;;;;0.55;0.50;;;7.50;99.90;;;;;;6151179;23;20029;-54
2023/06/03 02:37:37;;;;;;;1.55;0.80;;;7.50;99.90;;;;;;6151573;23;20426;-58
2023/06/03 02:40:05;;;;;;;0.80;0.80;;;7.50;99.90;;;;;;6151237;23;20354;-56
2023/06/03 02:42:30;;;;;;;2.15;1.15;;;7.50;99.90;;;;;;6151287;23;20002;-52
2023/06/03 02:44:56;;;;;;;2.85;0.93;;;7.50;99.90;;;;;;6150131;23;20013;-53
2023/06/03 02:47:22;;;;;;;0.60;0.52;;;7.50;99.90;;;;;;6151062;23;20013;-57
2023/06/03 02:49:47;;;;;;;1.30;1.02;;;7.50;99.90;;;;;;6151105;23;20056;-57
2023/06/03 02:52:13;;;;;;;1.85;0.80;;;7.40;99.90;;;;;;6150654;23;20420;-56
2023/06/03 02:54:38;;;;;;;1.52;0.90;;;7.40;99.90;;;;;;6150062;23;20020;-54
2023/06/03 02:57:04;;;;;;;1.75;0.90;;;7.30;99.90;;;;;;6150599;23;20108;-56
2023/06/03 02:59:29;;;;;;;3.75;0.90;;;7.30;99.90;;;;;;6150025;23;20029;-56
2023/06/03 03:01:55;;;;;;;1.40;0.77;;;7.20;99.90;;;;;;6148946;23;20032;-56
2023/06/03 03:04:22;;;;;;;1.83;0.90;;;7.20;99.90;;;;;;6149559;23;20002;-56
2023/06/03 03:06:49;;;;;;;4.10;1.13;;;7.10;99.90;;;;;;6149875;23;20005;-58
2023/06/03 03:09:14;;;;;;;1.30;0.98;;;7.10;99.90;;;;;;6150007;23;20538;-56
2023/06/03 03:11:40;;;;;;;2.50;1.40;;;7.10;99.90;;;;;;6149929;23;20037;-58
2023/06/03 03:14:06;;;;;;;1.95;1.10;;;7.00;99.90;;;;;;6148966;23;20419;-57
2023/06/03 03:16:33;;;;;;;5.50;1.27;;;7.00;99.90;;;;;;6150048;23;20005;-55
2023/06/03 03:18:58;;;;;;;1.67;1.13;;;7.00;99.90;;;;;;6149757;23;20045;-56
2023/06/03 03:21:24;;;;;;;1.92;1.00;;;7.00;99.90;;;;;;6149848;23;20020;-58
2023/06/03 03:23:50;;;;;;;0.77;0.75;;;7.00;99.90;;;;;;6149363;23;20006;-53
2023/06/03 03:26:21;;;;;;;1.45;0.85;;;7.00;99.90;;;;;;6149515;23;20660;-53
2023/06/03 03:28:47;;;;;;;1.80;1.15;;;7.00;99.90;;;;;;6149535;23;20037;-56
2023/06/03 03:31:14;;;;;;;1.98;1.23;;;7.00;99.90;;;;;;6148902;23;20524;-54
2023/06/03 03:33:40;;;;;;;1.58;0.98;;;7.10;99.90;;;;;;6149771;23;20001;-52
2023/06/03 03:36:26;;;;;;;1.83;1.13;;;7.10;99.90;;;;;;6148965;23;20009;-57
2023/06/03 03:39:05;;;;;;;1.70;1.10;;;7.10;99.90;;;;;;6149577;23;20008;-56
2023/06/03 03:41:32;;;;;;;1.23;1.10;;;7.10;99.90;;;;;;6147644;23;20082;-57
2023/06/03 03:43:58;;;;;;;2.58;1.08;;;7.10;99.90;;;;;;6148848;23;20038;-55
2023/06/03 03:46:23;;;;;;;1.33;0.75;;;7.10;99.90;;;;;;6149832;23;20039;-55
2023/06/03 03:48:49;;;;;;;1.58;1.20;;;7.10;99.90;;;;;;6149408;23;20041;-57
2023/06/03 03:51:15;;;;;;;2.78;1.30;;;7.10;99.90;;;;;;6149337;23;20029;-53
2023/06/03 03:53:47;;;;;;;1.58;1.02;;;7.10;99.90;;;;;;6149351;23;20009;-59
2023/06/03 03:56:21;;;;;;;1.77;0.93;;;7.10;99.90;;;;;;6149511;23;20008;-54
2023/06/03 03:58:48;;;;;;;2.65;0.90;;;7.10;99.90;;;;;;6149728;23;20001;-53
2023/06/03 04:01:22;;;;;;;2.25;1.13;;;7.10;99.90;;;;;;6149641;23;20068;-56
2023/06/03 04:03:50;;;;;;;1.80;1.33;;;7.10;99.90;;;;;;6149243;23;20415;-58
2023/06/03 04:06:29;;;;;;;1.20;1.10;;;7.20;99.90;;;;;;6149514;23;20014;-53
2023/06/03 04:08:56;;;;;;;2.25;1.52;;;7.20;99.90;;;;;;6149472;23;20044;-52
2023/06/03 04:11:26;;;;;;;1.17;1.10;;;7.20;99.90;;;;;;6147788;23;20010;-55
2023/06/03 04:13:52;;;;;;;2.05;1.20;;;7.30;99.90;;;;;;6148068;23;20080;-56
2023/06/03 04:16:46;;;;;;;2.05;0.70;;;7.30;99.90;;;;;;6149328;23;20374;-55
2023/06/03 04:19:20;;;;;;;2.08;0.77;;;7.30;99.90;;;;;;6149487;23;20085;-56
2023/06/03 04:21:47;;;;;;;1.35;1.00;;;7.30;99.90;;;;;;6149482;23;20004;-56
2023/06/03 04:24:12;;;;;;;2.33;1.05;;;7.30;99.90;;;;;;6148759;23;20063;-57
2023/06/03 04:26:38;;;;;;;2.28;1.10;;;7.40;99.90;;;;;;6149125;23;20081;-55
2023/06/03 04:29:04;;;;;;;1.70;0.90;;;7.40;99.90;;;;;;6149140;23;20012;-54
2023/06/03 04:31:30;;;;;;;3.17;1.17;;;7.50;99.90;;;;;;6148824;23;20056;-54
2023/06/03 04:33:55;;;;;;;1.65;0.80;;;7.60;99.90;;;;;;6148965;23;20033;-56
2023/06/03 04:36:21;;;;;;;2.88;1.05;;;7.60;99.90;;;;;;6145990;23;20006;-56
2023/06/03 04:38:47;;;;;;;1.40;0.85;;;7.60;99.90;;;;;;6149080;23;20044;-55
2023/06/03 04:41:15;;;;;;;1.58;1.10;;;7.70;99.90;;;;;;6149069;23;20009;-54
2023/06/03 04:43:43;;;;;;;3.78;1.13;;;7.70;99.90;;;;;;6150342;23;20001;-60
2023/06/03 04:46:10;;;;;;;1.88;1.02;;;7.80;99.90;;;;;;6149662;23;20012;-56
2023/06/03 04:48:45;;;;;;;1.38;0.90;;;7.80;99.90;;;;;;6149243;23;20001;-56
2023/06/03 04:51:11;;;;;;;1.35;0.80;;;8.00;99.90;;;;;;6149012;23;20236;-55
2023/06/03 04:53:37;;;;;;;2.50;1.00;;;8.10;99.90;;;;;;6147209;23;20315;-52
2023/06/03 04:56:03;;;;;;;2.53;1.30;;;8.10;99.90;;;;;;6148544;23;20172;-54
2023/06/03 04:58:29;;;;;;;1.55;1.00;;;8.20;99.90;;;;;;6147542;23;20493;-58
2023/06/03 05:00:55;;;;;;;2.08;1.23;;;8.20;99.90;;;;;;6148129;23;20017;-56
2023/06/03 05:03:22;;;;;;;0.73;0.60;;;8.40;99.90;;;;;;6121407;23;20026;-59
2023/06/03 05:05:47;;;;;;;1.52;0.88;;;8.50;99.90;;;;;;6148168;23;20105;-59
2023/06/03 05:08:13;;;;;;;2.35;1.10;;;8.50;99.90;;;;;;6149947;23;20037;-60
2023/06/03 05:10:39;;;;;;;3.65;0.90;;;8.60;99.90;;;;;;6149424;23;20013;-60
2023/06/03 05:13:06;;;;;;;1.23;0.85;;;8.70;99.90;;;;;;6149782;23;20012;-57
2023/06/03 05:15:33;;;;;;;2.50;1.20;;;8.80;99.90;;;;;;6147740;23;20005;-60
2023/06/03 05:18:00;;;;;;;1.67;0.82;;;8.90;99.90;;;;;;6149370;23;20012;-58
2023/06/03 05:20:25;;;;;;;4.68;0.95;;;9.00;99.90;;;;;;6149558;23;20069;-60
2023/06/03 05:22:51;;;;;;;1.35;0.98;;;9.10;99.90;;;;;;6123336;23;20355;-59
2023/06/03 05:25:17;;;;;;;2.03;1.20;;;9.20;99.90;;;;;;6149377;23;20009;-59
2023/06/03 05:27:42;;;;;;;1.77;0.75;;;9.30;99.90;;;;;;6149165;23;20013;-59
2023/06/03 05:30:09;;;;;;;1.48;0.77;;;9.40;99.90;;;;;;6148482;23;20383;-59
2023/06/03 05:32:35;;;;;;;1.05;0.70;;;9.60;99.90;;;;;;6148982;23;20002;-60
2023/06/03 05:35:00;;;;;;;2.60;0.75;;;9.70;99.90;;;;;;6149481;23;20009;-59
2023/06/03 05:37:26;;;;;;;2.33;1.13;;;9.90;99.90;;;;;;6149435;23;20006;-60
2023/06/03 05:39:51;;;;;;;1.90;1.00;;;10.00;99.90;;;;;;6123183;23;20350;-58
2023/06/03 05:42:17;;;;;;;1.60;0.90;;;10.10;99.90;;;;;;6123300;23;20338;-59
2023/06/03 05:44:42;;;;;;;1.05;0.90;;;10.30;99.90;;;;;;6148539;23;20121;-58
2023/06/03 05:47:08;;;;;;;2.88;0.93;;;10.50;99.90;;;;;;6149664;23;20002;-60
2023/06/03 05:49:33;;;;;;;1.48;0.80;;;10.70;99.90;;;;;;6149159;23;20016;-59
2023/06/03 05:51:59;;;;;;;1.95;1.17;;;11.00;99.90;;;;;;6149314;23;20002;-59
2023/06/03 05:54:28;;;;;;;1.30;0.80;;;11.20;99.90;;;;;;6149173;23;20033;-59
2023/06/03 05:56:57;;;;;;;1.08;0.63;;;11.40;99.90;;;;;;6149302;23;20217;-60
2023/06/03 05:59:23;;;;;;;1.85;1.05;;;11.70;99.90;;;;;;6146987;23;20079;-59
2023/06/03 06:01:48;;;;;;;0.98;0.60;;;11.90;99.90;;;;;;6157494;23;20024;-60
2023/06/03 06:04:14;;;;;;;3.40;1.20;;;12.10;99.90;;;;;;6178671;23;19997;-59
2023/06/03 06:06:40;;;;;;;0.75;0.68;;;12.30;99.90;;;;;;6179994;23;20005;-60
2023/06/03 06:09:05;;;;;;;1.15;0.80;;;12.50;99.90;;;;;;6181436;23;20460;-59
2023/06/03 06:11:31;;;;;;;1.83;0.73;;;12.70;99.90;;;;;;6181094;23;20009;-60
2023/06/03 06:13:57;;;;;;;0.60;0.60;;;12.90;99.90;;;;;;6180299;23;20012;-59
2023/06/03 06:16:22;;;;;;;2.58;0.85;;;13.20;99.90;;;;;;6180615;23;20084;-60
2023/06/03 06:18:48;;;;;;;0.60;0.60;;;13.40;99.90;;;;;;6181133;23;20437;-60
2023/06/03 06:21:15;;;;;;;2.10;0.80;;;13.50;99.90;;;;;;6181363;23;20028;-60
2023/06/03 06:23:44;;;;;;;0.40;0.40;;;13.70;99.90;;;;;;6180888;23;19998;-59
2023/06/03 06:26:13;;;;;;;0.63;0.63;;;13.80;99.20;;;;;;6180720;23;20027;-60
2023/06/03 06:28:39;;;;;;;0.90;0.60;;;14.00;99.90;;;;;;6180632;23;20386;-59
2023/06/03 06:31:05;;;;;;;1.67;0.80;;;14.20;99.90;;;;;;6153919;23;20035;-58
2023/06/03 06:33:33;;;;;;;0.50;0.50;;;14.40;99.90;;;;;;6180426;23;20012;-59
2023/06/03 06:36:03;;;;;;;1.13;0.75;;;14.60;99.90;;;;;;6179800;23;20015;-58
2023/06/03 06:38:29;;;;;;;0.95;0.63;;;14.80;99.90;;;;;;6153490;23;20005;-58
2023/06/03 06:40:55;;;;;;;0.80;0.50;;;15.00;98.70;;;;;;6180645;23;20496;-61
2023/06/03 06:43:25;;;;;;;0.80;0.50;;;15.20;98.30;;;;;;6181017;23;20015;-58
2023/06/03 06:45:54;;;;;;;2.92;0.80;;;15.40;99.90;;;;;;6154260;23;20021;-60
2023/06/03 06:48:20;;;;;;;0.70;0.50;;;15.60;98.50;;;;;;6180906;23;20036;-56
2023/06/03 06:50:48;;;;;;;1.50;0.77;;;15.70;97.20;;;;;;6180431;23;20005;-60
2023/06/03 06:53:15;;;;;;;1.08;0.70;;;15.90;97.30;;;;;;6180970;23;20414;-58
2023/06/03 06:55:46;;;;;;;1.05;0.65;;;16.10;97.40;;;;;;6179996;23;20067;-57
2023/06/03 06:58:11;;;;;;;0.73;0.63;;;16.20;97.50;;;;;;6180864;23;20001;-59
2023/06/03 07:00:38;;;;;;;2.13;0.70;;;16.30;97.50;;;;;;6179974;23;20023;-60
2023/06/03 07:03:06;;;;;;;2.58;0.70;;;16.40;95.70;;;;;;6180154;23;20013;-59
2023/06/03 07:05:31;;;;;;;1.92;0.80;;;16.60;95.50;;;;;;6180633;23;20039;-60
2023/06/03 07:07:57;;;;;;;2.30;0.80;;;16.80;95.10;;;;;;6180619;23;20005;-61
2023/06/03 07:10:22;;;;;;;1.35;0.95;;;16.80;94.40;;;;;;6179979;23;20110;-59
2023/06/03 07:12:51;;;;;;;1.23;0.80;;;16.90;94.50;;;;;;6180164;23;20388;-60
2023/06/03 07:15:18;;;;;;;0.70;0.50;;;17.00;95.20;;;;;;6180174;23;20055;-60
2023/06/03 07:17:52;;;;;;;3.25;0.80;;;17.00;94.60;;;;;;6179299;23;20009;-60
2023/06/03 07:20:39;;;;;;;0.88;0.70;;;17.10;94.50;;;;;;6180492;23;20004;-61
2023/06/03 07:23:10;;;;;;;1.77;1.02;;;17.20;94.70;;;;;;6179333;23;20005;-60
2023/06/03 07:25:41;;;;;;;2.50;1.17;;;17.40;94.70;;;;;;6179454;23;20041;-59
2023/06/03 07:28:12;;;;;;;2.05;0.70;;;17.50;95.30;;;;;;6180387;23;20005;-60
2023/06/03 07:30:39;;;;;;;0.63;0.52;;;17.60;93.80;;;;;;6179399;23;20017;-62
2023/06/03 07:33:08;;;;;;;1.95;0.93;;;17.50;90.40;;;;;;6180131;23;20541;-61
2023/06/03 07:35:37;;;;;;;2.50;0.90;;;17.70;92.70;;;;;;6153304;23;20745;-59
2023/06/03 07:38:04;;;;;;;3.55;1.00;;;17.90;89.40;;;;;;6180319;23;20004;-61
2023/06/03 07:40:42;;;;;;;2.35;0.75;;;18.00;90.40;;;;;;6180139;23;20025;-60
2023/06/03 07:43:11;;;;;;;1.48;0.80;;;18.30;90.80;;;;;;6154010;23;20445;-61
2023/06/03 07:45:37;;;;;;;2.08;0.45;;;18.30;91.40;;;;;;6179661;23;20441;-59
2023/06/03 07:48:03;;;;;;;2.30;0.80;;;18.50;91.00;;;;;;6180089;23;20080;-60
2023/06/03 07:50:30;;;;;;;2.60;1.10;;;18.70;92.00;;;;;;6180321;23;20434;-62
2023/06/03 07:53:00;;;;;;;1.48;0.75;;;18.80;86.80;;;;;;6153683;23;20038;-62
2023/06/03 07:55:43;;;;;;;1.77;0.70;;;18.90;86.30;;;;;;6179282;23;20100;-62
2023/06/03 07:58:10;;;;;;;1.05;0.82;;;19.00;84.80;;;;;;6180244;23;20108;-62
2023/06/03 08:00:38;;;;;;;2.75;0.60;;;19.00;81.10;;;;;;6179455;23;20009;-61
2023/06/03 08:03:05;;;;;;;1.63;0.70;;;19.20;84.50;;;;;;6152541;23;20024;-61
2023/06/03 08:05:35;;;;;;;0.70;0.70;;;19.40;83.50;;;;;;6179554;23;20005;-62
2023/06/03 08:08:05;;;;;;;1.85;0.60;;;19.60;83.00;;;;;;6179736;23;20032;-61
2023/06/03 08:10:33;;;;;;;2.15;0.60;;;19.70;80.80;;;;;;6179799;23;20001;-61
2023/06/03 08:12:59;;;;;;;1.67;0.50;;;19.90;80.80;;;;;;6179226;23;20009;-61
2023/06/03 08:15:27;;;;;;;0.68;0.68;;;20.00;79.30;;;;;;6179347;23;20147;-56
2023/06/03 08:17:53;;;;;;;2.33;1.00;;;20.00;76.20;;;;;;6153308;23;20040;-60
2023/06/03 08:20:28;;;;;;;0.95;0.50;;;19.80;75.50;;;;;;6153718;23;20005;-60
2023/06/03 08:22:55;;;;;;;0.80;0.60;;;19.60;77.60;;;;;;6179956;23;20016;-59
2023/06/03 08:25:21;;;;;;;0.85;0.50;;;19.80;77.50;;;;;;6179668;23;20012;-63
2023/06/03 08:27:47;;;;;;;0.85;0.57;;;20.00;77.80;;;;;;6179450;23;20009;-61
2023/06/03 08:30:14;;;;;;;0.85;0.60;;;20.00;76.80;;;;;;6177861;23;20007;-62
2023/06/03 08:32:40;;;;;;;0.55;0.55;;;20.10;75.70;;;;;;6179632;23;20354;-62
2023/06/03 08:35:10;;;;;;;1.77;0.85;;;19.80;73.90;;;;;;6178315;23;20042;-59
2023/06/03 08:37:36;;;;;;;0.77;0.43;;;19.70;75.50;;;;;;6178964;23;20085;-60
2023/06/03 08:40:08;;;;;;;0.90;0.63;;;20.00;77.90;;;;;;6179249;23;20028;-61
2023/06/03 08:42:42;;;;;;;2.25;0.60;;;20.30;82.60;;;;;;6179212;23;19997;-59
2023/06/03 08:45:13;;;;;;;1.20;0.60;;;20.50;75.80;;;;;;6152484;23;20009;-62
2023/06/03 08:47:57;;;;;;;1.45;0.70;;;20.40;75.10;;;;;;6179154;23;20055;-64
2023/06/03 08:50:25;;;;;;;1.15;0.70;;;20.40;75.60;;;;;;6178628;23;20001;-62
2023/06/03 08:52:52;;;;;;;0.57;0.50;;;20.60;75.90;;;;;;6178948;23;20420;-61
2023/06/03 08:55:19;;;;;;;1.55;0.98;;;20.80;81.80;;;;;;6178157;23;20017;-61
2023/06/03 08:58:07;;;;;;;2.17;0.80;;;20.90;73.40;;;;;;6178909;23;20002;-61
2023/06/03 09:00:33;;;;;;;0.77;0.47;;;21.10;71.10;;;;;;6178747;23;20015;-61
2023/06/03 09:03:00;;;;;;;1.02;0.60;;;21.30;71.80;;;;;;6179284;23;20005;-56
2023/06/03 09:05:26;;;;;;;2.75;0.90;;;21.30;71.40;;;;;;6179253;23;20008;-57
2023/06/03 09:07:52;;;;;;;2.40;0.60;;;21.10;68.20;;;;;;6152699;23;20062;-61
2023/06/03 09:10:25;;;;;;;0.55;0.55;;;20.80;71.60;;;;;;6179571;23;20556;-64
2023/06/03 09:12:54;;;;;;;3.03;0.60;;;20.90;71.40;;;;;;6178523;23;20145;-61
2023/06/03 09:15:20;;;;;;;1.33;0.70;;;20.70;71.20;;;;;;6178745;23;20001;-59
2023/06/03 09:17:46;;;;;;;0.80;0.57;;;20.60;69.90;;;;;;6179173;23;20039;-60
2023/06/03 09:20:13;;;;;;;2.22;0.73;;;20.70;71.00;;;;;;6179424;23;19997;-63
2023/06/03 09:22:42;;;;;;;0.98;0.60;;;20.70;71.00;;;;;;6178288;23;20469;-58
2023/06/03 09:25:08;;;;;;;1.30;0.50;;;20.80;70.40;;;;;;6177800;23;20001;-62
2023/06/03 09:27:35;;;;;;;1.38;0.60;;;20.80;71.50;;;;;;6178606;23;20021;-61
2023/06/03 09:30:04;;;;;;;2.60;0.60;;;21.00;72.90;;;;;;6152630;23;20005;-61
2023/06/03 09:32:30;;;;;;;0.43;0.43;;;21.00;70.20;;;;;;6178751;23;20096;-62
2023/06/03 09:34:57;;;;;;;2.47;0.60;;;20.90;69.60;;;;;;6178205;23;20350;-60
2023/06/03 09:37:22;;;;;;;2.35;0.90;;;20.90;70.40;;;;;;6178869;23;20449;-64
2023/06/03 09:39:51;;;;;;;0.93;0.52;;;20.70;69.10;;;;;;6151026;23;20005;-63
2023/06/03 09:42:16;;;;;;;1.20;0.57;;;20.30;69.20;;;;;;6179238;23;20001;-61
2023/06/03 09:44:46;;;;;;;1.40;0.70;;;20.40;70.40;;;;;;6151266;23;20393;-62
2023/06/03 09:47:12;;;;;;;1.02;0.60;;;20.40;72.20;;;;;;6179327;23;20013;-62
2023/06/03 09:49:38;;;;;;;4.72;0.75;;;20.40;70.90;;;;;;6178242;23;20045;-63
2023/06/03 09:52:09;;;;;;;2.92;0.47;;;20.60;70.70;;;;;;6150719;23;20020;-63
2023/06/03 09:54:35;;;;;;;2.97;0.60;;;20.60;67.80;;;;;;6177561;23;20001;-61
2023/06/03 09:57:10;;;;;;;0.38;0.38;;;20.40;68.00;;;;;;6178500;23;20012;-64
2023/06/03 09:59:36;;;;;;;2.60;0.80;;;20.30;69.30;;;;;;6151627;23;20005;-59
2023/06/03 10:02:09;;;;;;;1.30;0.50;;;20.20;69.80;;;;;;6176989;23;20017;-65
2023/06/03 10:04:46;;;;;;;1.08;0.50;;;20.10;69.30;;;;;;6178198;23;20343;-62
2023/06/03 10:07:17;;;;;;;1.25;0.80;;;20.10;68.20;;;;;;6179483;23;20035;-65
2023/06/03 10:09:47;;;;;;;1.08;0.88;;;20.00;68.90;;;;;;6178468;23;20001;-62
2023/06/03 10:12:27;;;;;;;1.10;0.60;;;19.90;68.90;;;;;;6178657;23;20005;-64
2023/06/03 10:14:55;;;;;;;3.00;0.55;;;20.00;69.10;;;;;;6178279;23;20075;-60
2023/06/03 10:17:21;;;;;;;1.10;0.70;;;20.00;68.70;;;;;;6178325;23;20012;-64
2023/06/03 10:19:47;;;;;;;2.25;1.00;;;20.10;69.60;;;;;;6178914;23;20380;-67
2023/06/03 10:22:18;;;;;;;1.73;0.68;;;20.00;69.00;;;;;;6178908;23;20005;-67
2023/06/03 10:24:48;;;;;;;0.57;0.47;;;19.80;68.80;;;;;;6152395;23;20006;-69
2023/06/03 10:27:16;;;;;;;1.23;0.60;;;19.70;69.40;;;;;;6178105;23;20005;-64
2023/06/03 10:29:42;;;;;;;2.05;0.40;;;19.60;68.70;;;;;;6178564;23;20008;-63
2023/06/03 10:32:17;;;;;;;0.70;0.47;;;19.60;70.50;;;;;;6178217;23;20013;-64
2023/06/03 10:34:44;;;;;;;0.45;0.40;;;19.70;71.10;;;;;;6178384;23;20025;-66
2023/06/03 10:37:13;;;;;;;0.73;0.63;;;19.80;70.40;;;;;;6150451;23;20009;-62
2023/06/03 10:39:41;;;;;;;0.65;0.60;;;19.80;70.40;;;;;;6177393;23;20073;-62
2023/06/03 10:42:09;;;;;;;0.60;0.57;;;19.70;69.70;;;;;;6179570;23;20032;-61
2023/06/03 10:44:35;;;;;;;1.92;0.57;;;19.80;70.80;;;;;;6177664;23;19997;-62
2023/06/03 10:47:20;;;;;;;2.08;0.70;;;19.80;70.20;;;;;;6151786;23;20012;-65
2023/06/03 10:50:16;;;;;;;0.73;0.60;;;19.90;71.10;;;;;;6177565;23;20040;-66
2023/06/03 10:53:07;;;;;;;1.75;0.77;;;19.80;70.60;;;;;;6179502;23;20012;-63
2023/06/03 10:56:06;;;;;;;1.20;0.50;;;19.80;69.00;;;;;;6179800;23;20060;-63
2023/06/03 10:58:32;;;;;;;0.73;0.68;;;19.90;70.70;;;;;;6153134;23;20008;-62
2023/06/03 11:01:00;;;;;;;0.73;0.52;;;19.70;69.50;;;;;;6179582;23;20017;-65
2023/06/03 11:03:31;;;;;;;0.57;0.50;;;19.70;70.30;;;;;;6152534;23;20374;-58
2023/06/03 11:06:18;;;;;;;0.50;0.50;;;19.70;70.40;;;;;;6148920;23;20009;-58
2023/06/03 11:09:05;;;;;;;0.63;0.50;;;19.60;69.00;;;;;;6149796;23;20015;-60
2023/06/03 11:11:55;;;;;;;0.88;0.60;;;19.80;69.50;;;;;;6150432;23;20009;-59
2023/06/03 11:14:27;;;;;;;0.80;0.80;;;19.80;69.40;;;;;;6120974;23;20012;-60
2023/06/03 11:16:59;;;;;;;0.60;0.60;;;19.80;70.50;;;;;;6120434;23;20049;-59
2023/06/03 11:19:33;;;;;;;2.67;0.60;;;19.70;67.20;;;;;;6121149;23;20029;-58
2023/06/03 11:22:00;;;;;;;1.58;0.50;;;19.60;69.00;;;;;;6119653;23;20005;-61
2023/06/03 11:24:37;;;;;;;4.32;0.60;;;19.50;68.50;;;;;;6121021;23;20396;-60
2023/06/03 11:27:09;;;;;;;1.77;0.60;;;19.50;69.00;;;;;;6120931;23;20435;-62
2023/06/03 11:29:47;;;;;;;0.65;0.57;;;19.40;67.90;;;;;;6120016;23;20457;-57
2023/06/03 11:32:22;;;;;;;1.20;0.50;;;19.40;68.10;;;;;;6119195;23;20433;-61
2023/06/03 11:34:49;;;;;;;1.05;0.75;;;19.50;66.40;;;;;;6119716;23;20056;-61
2023/06/03 11:37:20;;;;;;;1.52;0.70;;;19.60;66.30;;;;;;6119783;23;20005;-62
2023/06/03 11:40:05;;;;;;;0.75;0.63;;;19.70;65.20;;;;;;6120278;23;20002;-59
2023/06/03 11:42:32;;;;;;;1.10;0.60;;;19.70;67.60;;;;;;6142981;23;20032;-61
2023/06/03 11:45:19;;;;;;;1.25;0.50;;;19.90;69.20;;;;;;6120114;23;20002;-61
2023/06/03 11:47:48;;;;;;;1.33;0.68;;;20.00;68.90;;;;;;6120639;23;20394;-62
2023/06/03 11:50:14;;;;;;;1.23;0.60;;;20.10;68.60;;;;;;6120649;23;20002;-60
2023/06/03 11:52:40;;;;;;;1.58;0.80;;;20.20;66.70;;;;;;6119757;23;20009;-60
2023/06/03 11:55:06;;;;;;;1.02;0.75;;;20.20;67.50;;;;;;6119571;23;20033;-61
2023/06/03 11:57:33;;;;;;;0.60;0.50;;;20.20;68.20;;;;;;6120951;23;20005;-60
2023/06/03 11:59:59;;;;;;;3.15;1.02;;;20.30;68.00;;;;;;6117868;23;20012;-61
2023/06/03 12:02:25;;;;;;;1.10;0.63;;;20.40;68.10;;;;;;6119453;23;20637;-58
2023/06/03 12:05:02;;;;;;;3.08;0.80;;;20.50;67.00;;;;;;6117994;23;20009;-58
2023/06/03 12:07:29;;;;;;;1.20;0.80;;;20.60;68.00;;;;;;6120741;23;20036;-60
2023/06/03 12:09:57;;;;;;;1.15;0.70;;;20.60;64.50;;;;;;6119391;23;20002;-58
2023/06/03 12:12:23;;;;;;;1.10;0.63;;;20.40;67.10;;;;;;6117538;23;20494;-61
2023/06/03 12:14:49;;;;;;;0.55;0.55;;;20.50;66.30;;;;;;6119455;23;20041;-60
2023/06/03 12:17:18;;;;;;;1.10;0.60;;;20.30;66.10;;;;;;6119848;23;20006;-59
2023/06/03 12:19:45;;;;;;;1.35;0.63;;;20.30;66.60;;;;;;6120197;23;20033;-60
2023/06/03 12:22:11;;;;;;;2.20;0.68;;;20.40;65.50;;;;;;6120074;23;20002;-61
2023/06/03 12:24:40;;;;;;;1.73;0.52;;;20.20;64.60;;;;;;6119065;23;20025;-57
2023/06/03 12:27:26;;;;;;;0.60;0.60;;;20.20;64.40;;;;;;6119318;23;20010;-58
2023/06/03 12:29:56;;;;;;;0.63;0.50;;;20.00;65.10;;;;;;6119690;23;20009;-59
2023/06/03 12:32:23;;;;;;;0.40;0.40;;;20.10;66.90;;;;;;6118861;23;20338;-59
2023/06/03 12:34:50;;;;;;;1.30;0.70;;;20.10;65.10;;;;;;6119377;23;20021;-60
2023/06/03 12:37:29;;;;;;;0.57;0.57;;;20.10;64.80;;;;;;6118062;23;20002;-60
2023/06/03 12:39:56;;;;;;;0.40;0.40;;;19.90;65.30;;;;;;6119369;23;20006;-60
2023/06/03 12:42:38;;;;;;;0.55;0.55;;;19.90;66.50;;;;;;6118880;23;20040;-59
2023/06/03 12:45:05;;;;;;;0.60;0.60;;;20.00;68.00;;;;;;6119213;23;20013;-60
2023/06/03 12:47:45;;;;;;;2.55;0.80;;;20.10;66.30;;;;;;6118228;23;20390;-61
2023/06/03 12:50:12;;;;;;;0.85;0.55;;;20.20;65.40;;;;;;6119759;23;20038;-62
2023/06/03 12:52:38;;;;;;;0.90;0.50;;;20.20;64.60;;;;;;6119485;23;19998;-59
2023/06/03 12:55:09;;;;;;;0.57;0.55;;;20.30;64.40;;;;;;6118709;23;20364;-61
2023/06/03 12:57:37;;;;;;;1.13;0.60;;;20.30;65.60;;;;;;6119797;23;20006;-60